sensor_id;sensor_type;location;lat;lon;timestamp;temperature;humidity
66586;SHT30;53444;45.822;16.092;2023-02-03T00:00:24;4.17;87.11
66586;SHT30;53444;45.822;16.092;2023-02-03T00:02:53;4.15;87.34
66586;SHT30;53444;45.822;16.092;2023-02-03T00:05:19;4.12;87.32
66586;SHT30;53444;45.822;16.092;2023-02-03T00:07:47;4.14;87.44
66586;SHT30;53444;45.822;16.092;2023-02-03T00:10:17;4.08;87.71
66586;SHT30;53444;45.822;16.092;2023-02-03T00:12:46;4.02;88.21
66586;SHT30;53444;45.822;16.092;2023-02-03T00:15:13;4.02;88.35
66586;SHT30;53444;45.822;16.092;2023-02-03T00:17:39;4.07;88.45
66586;SHT30;53444;45.822;16.092;2023-02-03T00:20:06;4.05;88.35
66586;SHT30;53444;45.822;16.092;2023-02-03T00:22:33;4.02;88.58
66586;SHT30;53444;45.822;16.092;2023-02-03T00:25:00;4.04;88.60
66586;SHT30;53444;45.822;16.092;2023-02-03T00:27:27;4.17;88.14
66586;SHT30;53444;45.822;16.092;2023-02-03T00:29:54;4.12;88.23
66586;SHT30;53444;45.822;16.092;2023-02-03T00:32:21;4.10;88.29
66586;SHT30;53444;45.822;16.092;2023-02-03T00:34:47;4.15;87.88
66586;SHT30;53444;45.822;16.092;2023-02-03T00:37:14;4.10;87.78
66586;SHT30;53444;45.822;16.092;2023-02-03T00:39:41;4.04;87.90
66586;SHT30;53444;45.822;16.092;2023-02-03T00:42:09;4.07;87.61
66586;SHT30;53444;45.822;16.092;2023-02-03T00:44:37;4.14;87.19
66586;SHT30;53444;45.822;16.092;2023-02-03T00:47:04;4.11;87.38
66586;SHT30;53444;45.822;16.092;2023-02-03T00:49:31;4.15;87.39
66586;SHT30;53444;45.822;16.092;2023-02-03T00:51:57;4.24;87.02
66586;SHT30;53444;45.822;16.092;2023-02-03T00:54:24;4.25;87.09
66586;SHT30;53444;45.822;16.092;2023-02-03T00:56:51;4.37;86.41
66586;SHT30;53444;45.822;16.092;2023-02-03T00:59:17;4.44;86.01
66586;SHT30;53444;45.822;16.092;2023-02-03T01:01:45;4.31;86.25
66586;SHT30;53444;45.822;16.092;2023-02-03T01:04:13;4.31;86.17
66586;SHT30;53444;45.822;16.092;2023-02-03T01:06:41;4.31;86.23
66586;SHT30;53444;45.822;16.092;2023-02-03T01:09:09;4.19;86.72
66586;SHT30;53444;45.822;16.092;2023-02-03T01:11:35;4.22;86.96
66586;SHT30;53444;45.822;16.092;2023-02-03T01:14:02;4.11;87.11
66586;SHT30;53444;45.822;16.092;2023-02-03T01:16:29;3.98;87.61
66586;SHT30;53444;45.822;16.092;2023-02-03T01:19:03;3.86;88.46
66586;SHT30;53444;45.822;16.092;2023-02-03T01:21:31;3.88;88.28
66586;SHT30;53444;45.822;16.092;2023-02-03T01:23:58;3.88;88.20
66586;SHT30;53444;45.822;16.092;2023-02-03T01:26:25;3.88;88.16
66586;SHT30;53444;45.822;16.092;2023-02-03T01:28:58;3.84;88.35
66586;SHT30;53444;45.822;16.092;2023-02-03T01:31:29;3.83;88.50
66586;SHT30;53444;45.822;16.092;2023-02-03T01:33:56;3.86;88.39
66586;SHT30;53444;45.822;16.092;2023-02-03T01:36:27;3.77;88.71
66586;SHT30;53444;45.822;16.092;2023-02-03T01:38:54;3.70;88.96
66586;SHT30;53444;45.822;16.092;2023-02-03T01:41:22;3.66;89.07
66586;SHT30;53444;45.822;16.092;2023-02-03T01:43:51;3.62;89.02
66586;SHT30;53444;45.822;16.092;2023-02-03T01:46:26;3.57;89.38
66586;SHT30;53444;45.822;16.092;2023-02-03T01:48:55;3.59;89.10
66586;SHT30;53444;45.822;16.092;2023-02-03T01:51:24;3.56;89.03
66586;SHT30;53444;45.822;16.092;2023-02-03T01:53:52;3.57;89.05
66586;SHT30;53444;45.822;16.092;2023-02-03T01:56:20;3.57;88.96
66586;SHT30;53444;45.822;16.092;2023-02-03T01:58:48;3.47;89.30
66586;SHT30;53444;45.822;16.092;2023-02-03T02:01:17;3.47;89.22
66586;SHT30;53444;45.822;16.092;2023-02-03T02:03:47;3.52;89.07
66586;SHT30;53444;45.822;16.092;2023-02-03T02:06:15;3.52;88.89
66586;SHT30;53444;45.822;16.092;2023-02-03T02:08:45;3.43;89.01
66586;SHT30;53444;45.822;16.092;2023-02-03T02:11:15;3.42;89.03
66586;SHT30;53444;45.822;16.092;2023-02-03T02:13:44;3.40;89.17
66586;SHT30;53444;45.822;16.092;2023-02-03T02:16:14;3.19;89.80
66586;SHT30;53444;45.822;16.092;2023-02-03T02:21:56;3.06;90.04
66586;SHT30;53444;45.822;16.092;2023-02-03T02:25:01;3.05;90.23
66586;SHT30;53444;45.822;16.092;2023-02-03T02:27:49;3.09;89.90
66586;SHT30;53444;45.822;16.092;2023-02-03T02:30:40;3.12;89.96
66586;SHT30;53444;45.822;16.092;2023-02-03T02:33:21;3.15;89.78
66586;SHT30;53444;45.822;16.092;2023-02-03T02:35:56;3.06;90.08
66586;SHT30;53444;45.822;16.092;2023-02-03T02:38:37;3.06;90.05
66586;SHT30;53444;45.822;16.092;2023-02-03T02:41:09;3.09;89.81
66586;SHT30;53444;45.822;16.092;2023-02-03T02:43:41;3.08;89.78
66586;SHT30;53444;45.822;16.092;2023-02-03T02:46:10;3.02;89.91
66586;SHT30;53444;45.822;16.092;2023-02-03T02:48:43;3.01;90.02
66586;SHT30;53444;45.822;16.092;2023-02-03T02:51:13;3.01;90.03
66586;SHT30;53444;45.822;16.092;2023-02-03T02:53:44;3.11;89.79
66586;SHT30;53444;45.822;16.092;2023-02-03T02:56:13;2.98;90.39
66586;SHT30;53444;45.822;16.092;2023-02-03T02:58:42;2.87;90.64
66586;SHT30;53444;45.822;16.092;2023-02-03T03:01:11;2.88;90.54
66586;SHT30;53444;45.822;16.092;2023-02-03T03:03:43;2.87;90.46
66586;SHT30;53444;45.822;16.092;2023-02-03T03:06:14;2.84;90.59
66586;SHT30;53444;45.822;16.092;2023-02-03T03:08:46;2.99;90.35
66586;SHT30;53444;45.822;16.092;2023-02-03T03:11:13;3.04;90.09
66586;SHT30;53444;45.822;16.092;2023-02-03T03:13:43;3.04;89.97
66586;SHT30;53444;45.822;16.092;2023-02-03T03:16:11;3.08;89.90
66586;SHT30;53444;45.822;16.092;2023-02-03T03:18:43;3.12;89.86
66586;SHT30;53444;45.822;16.092;2023-02-03T03:21:14;3.15;89.89
66586;SHT30;53444;45.822;16.092;2023-02-03T03:23:44;3.16;89.66
66586;SHT30;53444;45.822;16.092;2023-02-03T03:26:15;3.13;89.79
66586;SHT30;53444;45.822;16.092;2023-02-03T03:28:47;3.13;90.02
66586;SHT30;53444;45.822;16.092;2023-02-03T03:31:16;3.20;89.86
66586;SHT30;53444;45.822;16.092;2023-02-03T03:33:45;3.25;89.81
66586;SHT30;53444;45.822;16.092;2023-02-03T03:36:18;3.28;89.61
66586;SHT30;53444;45.822;16.092;2023-02-03T03:38:55;3.30;89.57
66586;SHT30;53444;45.822;16.092;2023-02-03T03:41:27;3.32;89.36
66586;SHT30;53444;45.822;16.092;2023-02-03T03:44:00;3.28;89.21
66586;SHT30;53444;45.822;16.092;2023-02-03T03:46:32;3.26;89.29
66586;SHT30;53444;45.822;16.092;2023-02-03T03:49:04;3.30;89.24
66586;SHT30;53444;45.822;16.092;2023-02-03T03:51:34;3.26;89.37
66586;SHT30;53444;45.822;16.092;2023-02-03T03:54:07;3.26;89.44
66586;SHT30;53444;45.822;16.092;2023-02-03T03:56:39;3.26;89.51
66586;SHT30;53444;45.822;16.092;2023-02-03T03:59:13;3.25;89.56
66586;SHT30;53444;45.822;16.092;2023-02-03T04:01:41;3.20;89.80
66586;SHT30;53444;45.822;16.092;2023-02-03T04:04:10;3.16;90.10
66586;SHT30;53444;45.822;16.092;2023-02-03T04:06:38;3.12;90.13
66586;SHT30;53444;45.822;16.092;2023-02-03T04:09:04;3.05;90.56
66586;SHT30;53444;45.822;16.092;2023-02-03T04:11:31;3.08;90.55
66586;SHT30;53444;45.822;16.092;2023-02-03T04:14:15;3.11;90.40
66586;SHT30;53444;45.822;16.092;2023-02-03T04:16:42;3.15;90.20
66586;SHT30;53444;45.822;16.092;2023-02-03T04:19:10;3.19;90.08
66586;SHT30;53444;45.822;16.092;2023-02-03T04:21:37;3.13;90.27
66586;SHT30;53444;45.822;16.092;2023-02-03T04:24:05;3.13;90.31
66586;SHT30;53444;45.822;16.092;2023-02-03T04:26:32;3.15;90.12
66586;SHT30;53444;45.822;16.092;2023-02-03T04:28:59;3.08;90.01
66586;SHT30;53444;45.822;16.092;2023-02-03T04:31:27;3.08;90.39
66586;SHT30;53444;45.822;16.092;2023-02-03T04:33:54;3.11;90.42
66586;SHT30;53444;45.822;16.092;2023-02-03T04:36:25;3.16;90.16
66586;SHT30;53444;45.822;16.092;2023-02-03T04:38:53;3.23;89.83
66586;SHT30;53444;45.822;16.092;2023-02-03T04:41:20;3.16;90.22
66586;SHT30;53444;45.822;16.092;2023-02-03T04:43:48;3.19;90.33
66586;SHT30;53444;45.822;16.092;2023-02-03T04:46:15;3.29;91.22
66586;SHT30;53444;45.822;16.092;2023-02-03T04:48:43;3.33;90.96
66586;SHT30;53444;45.822;16.092;2023-02-03T04:51:10;3.32;90.02
66586;SHT30;53444;45.822;16.092;2023-02-03T04:53:38;3.33;89.92
66586;SHT30;53444;45.822;16.092;2023-02-03T04:56:05;3.30;89.90
66586;SHT30;53444;45.822;16.092;2023-02-03T04:58:32;3.28;90.16
66586;SHT30;53444;45.822;16.092;2023-02-03T05:01:05;3.26;90.00
66586;SHT30;53444;45.822;16.092;2023-02-03T05:03:31;3.23;89.92
66586;SHT30;53444;45.822;16.092;2023-02-03T05:05:58;3.19;90.27
66586;SHT30;53444;45.822;16.092;2023-02-03T05:08:25;3.19;90.23
66586;SHT30;53444;45.822;16.092;2023-02-03T05:10:52;3.16;90.35
66586;SHT30;53444;45.822;16.092;2023-02-03T05:13:19;3.13;90.50
66586;SHT30;53444;45.822;16.092;2023-02-03T05:15:45;3.08;90.82
66586;SHT30;53444;45.822;16.092;2023-02-03T05:18:12;3.04;91.21
66586;SHT30;53444;45.822;16.092;2023-02-03T05:20:39;2.99;91.20
66586;SHT30;53444;45.822;16.092;2023-02-03T05:23:05;3.04;91.12
66586;SHT30;53444;45.822;16.092;2023-02-03T05:25:32;2.98;91.35
66586;SHT30;53444;45.822;16.092;2023-02-03T05:28:00;2.98;91.09
66586;SHT30;53444;45.822;16.092;2023-02-03T05:30:26;2.96;91.07
66586;SHT30;53444;45.822;16.092;2023-02-03T05:32:53;2.94;91.17
66586;SHT30;53444;45.822;16.092;2023-02-03T05:35:19;2.94;91.26
66586;SHT30;53444;45.822;16.092;2023-02-03T05:37:46;2.89;91.30
66586;SHT30;53444;45.822;16.092;2023-02-03T05:40:13;2.85;91.32
66586;SHT30;53444;45.822;16.092;2023-02-03T05:42:57;2.84;91.13
66586;SHT30;53444;45.822;16.092;2023-02-03T05:45:25;2.74;91.69
66586;SHT30;53444;45.822;16.092;2023-02-03T05:47:51;2.68;91.83
66586;SHT30;53444;45.822;16.092;2023-02-03T05:50:18;2.62;91.83
66586;SHT30;53444;45.822;16.092;2023-02-03T05:52:47;2.58;91.84
66586;SHT30;53444;45.822;16.092;2023-02-03T05:55:14;2.62;91.79
66586;SHT30;53444;45.822;16.092;2023-02-03T05:57:41;2.68;91.37
66586;SHT30;53444;45.822;16.092;2023-02-03T06:00:09;2.61;91.39
66586;SHT30;53444;45.822;16.092;2023-02-03T06:02:38;2.50;91.68
66586;SHT30;53444;45.822;16.092;2023-02-03T06:05:06;2.43;91.77
66586;SHT30;53444;45.822;16.092;2023-02-03T06:07:36;2.41;91.82
66586;SHT30;53444;45.822;16.092;2023-02-03T06:10:03;2.40;91.87
66586;SHT30;53444;45.822;16.092;2023-02-03T06:12:30;2.36;91.91
66586;SHT30;53444;45.822;16.092;2023-02-03T06:14:57;2.34;92.21
66586;SHT30;53444;45.822;16.092;2023-02-03T06:17:23;2.26;92.52
66586;SHT30;53444;45.822;16.092;2023-02-03T06:19:51;2.32;92.24
66586;SHT30;53444;45.822;16.092;2023-02-03T06:22:18;2.32;92.19
66586;SHT30;53444;45.822;16.092;2023-02-03T06:24:45;2.33;92.38
66586;SHT30;53444;45.822;16.092;2023-02-03T06:27:12;2.37;92.14
66586;SHT30;53444;45.822;16.092;2023-02-03T06:29:40;2.44;91.91
66586;SHT30;53444;45.822;16.092;2023-02-03T06:32:07;2.43;91.70
66586;SHT30;53444;45.822;16.092;2023-02-03T06:34:33;2.33;91.88
66586;SHT30;53444;45.822;16.092;2023-02-03T06:37:01;2.23;91.99
66586;SHT30;53444;45.822;16.092;2023-02-03T06:39:28;2.37;91.69
66586;SHT30;53444;45.822;16.092;2023-02-03T06:41:54;2.36;91.83
66586;SHT30;53444;45.822;16.092;2023-02-03T06:44:21;2.30;92.36
66586;SHT30;53444;45.822;16.092;2023-02-03T06:46:48;2.37;92.32
66586;SHT30;53444;45.822;16.092;2023-02-03T06:49:15;2.34;92.36
66586;SHT30;53444;45.822;16.092;2023-02-03T06:51:42;2.40;92.27
66586;SHT30;53444;45.822;16.092;2023-02-03T06:54:11;2.48;92.15
66586;SHT30;53444;45.822;16.092;2023-02-03T06:56:38;2.50;92.10
66586;SHT30;53444;45.822;16.092;2023-02-03T06:59:08;2.54;91.93
66586;SHT30;53444;45.822;16.092;2023-02-03T07:01:38;2.55;92.10
66586;SHT30;53444;45.822;16.092;2023-02-03T07:04:05;2.60;91.87
66586;SHT30;53444;45.822;16.092;2023-02-03T07:06:31;2.50;91.87
66586;SHT30;53444;45.822;16.092;2023-02-03T07:09:03;2.22;93.04
66586;SHT30;53444;45.822;16.092;2023-02-03T07:11:31;2.23;93.12
66586;SHT30;53444;45.822;16.092;2023-02-03T07:13:58;2.33;92.94
66586;SHT30;53444;45.822;16.092;2023-02-03T07:16:24;2.40;92.54
66586;SHT30;53444;45.822;16.092;2023-02-03T07:18:54;2.48;92.38
66586;SHT30;53444;45.822;16.092;2023-02-03T07:21:20;2.43;92.62
66586;SHT30;53444;45.822;16.092;2023-02-03T07:23:48;2.53;92.44
66586;SHT30;53444;45.822;16.092;2023-02-03T07:26:15;2.60;92.06
66586;SHT30;53444;45.822;16.092;2023-02-03T07:28:44;2.50;92.08
66586;SHT30;53444;45.822;16.092;2023-02-03T07:31:11;2.53;92.01
66586;SHT30;53444;45.822;16.092;2023-02-03T07:33:37;2.65;91.63
66586;SHT30;53444;45.822;16.092;2023-02-03T07:36:05;2.68;91.85
66586;SHT30;53444;45.822;16.092;2023-02-03T07:38:32;2.80;91.73
66586;SHT30;53444;45.822;16.092;2023-02-03T07:40:59;2.92;91.33
66586;SHT30;53444;45.822;16.092;2023-02-03T07:43:25;3.02;91.43
66586;SHT30;53444;45.822;16.092;2023-02-03T07:45:53;3.08;91.40
66586;SHT30;53444;45.822;16.092;2023-02-03T07:48:20;3.18;92.00
66586;SHT30;53444;45.822;16.092;2023-02-03T07:50:47;3.30;91.14
66586;SHT30;53444;45.822;16.092;2023-02-03T07:53:15;3.32;90.93
66586;SHT30;53444;45.822;16.092;2023-02-03T07:55:41;3.32;91.19
66586;SHT30;53444;45.822;16.092;2023-02-03T07:58:08;3.18;91.98
66586;SHT30;53444;45.822;16.092;2023-02-03T08:00:35;3.16;92.59
66586;SHT30;53444;45.822;16.092;2023-02-03T08:03:02;3.12;92.77
66586;SHT30;53444;45.822;16.092;2023-02-03T08:05:29;3.28;92.42
66586;SHT30;53444;45.822;16.092;2023-02-03T08:07:56;3.47;91.39
66586;SHT30;53444;45.822;16.092;2023-02-03T08:10:23;3.55;91.17
66586;SHT30;53444;45.822;16.092;2023-02-03T08:12:52;3.76;90.76
66586;SHT30;53444;45.822;16.092;2023-02-03T08:15:18;3.97;89.90
66586;SHT30;53444;45.822;16.092;2023-02-03T08:17:46;3.86;89.83
66586;SHT30;53444;45.822;16.092;2023-02-03T08:20:15;4.00;89.92
66586;SHT30;53444;45.822;16.092;2023-02-03T08:22:42;4.10;89.71
66586;SHT30;53444;45.822;16.092;2023-02-03T08:25:09;4.05;89.90
66586;SHT30;53444;45.822;16.092;2023-02-03T08:27:36;4.04;90.10
66586;SHT30;53444;45.822;16.092;2023-02-03T08:30:04;4.12;89.60
66586;SHT30;53444;45.822;16.092;2023-02-03T08:32:32;4.22;88.26
66586;SHT30;53444;45.822;16.092;2023-02-03T08:34:58;4.32;87.19
66586;SHT30;53444;45.822;16.092;2023-02-03T08:37:26;4.51;87.56
66586;SHT30;53444;45.822;16.092;2023-02-03T08:39:56;4.49;86.52
66586;SHT30;53444;45.822;16.092;2023-02-03T08:42:22;4.49;86.34
66586;SHT30;53444;45.822;16.092;2023-02-03T08:44:51;4.45;86.57
66586;SHT30;53444;45.822;16.092;2023-02-03T08:47:17;4.48;86.05
66586;SHT30;53444;45.822;16.092;2023-02-03T08:49:44;4.48;85.95
66586;SHT30;53444;45.822;16.092;2023-02-03T08:52:11;4.56;85.82
66586;SHT30;53444;45.822;16.092;2023-02-03T08:54:40;4.59;85.38
66586;SHT30;53444;45.822;16.092;2023-02-03T08:57:07;4.66;85.22
66586;SHT30;53444;45.822;16.092;2023-02-03T08:59:39;4.77;84.46
66586;SHT30;53444;45.822;16.092;2023-02-03T09:02:08;4.94;84.09
66586;SHT30;53444;45.822;16.092;2023-02-03T09:04:36;5.04;82.78
66586;SHT30;53444;45.822;16.092;2023-02-03T09:07:03;5.23;83.26
66586;SHT30;53444;45.822;16.092;2023-02-03T09:09:29;5.37;82.67
66586;SHT30;53444;45.822;16.092;2023-02-03T09:11:58;5.48;80.88
66586;SHT30;53444;45.822;16.092;2023-02-03T09:14:27;5.54;79.33
66586;SHT30;53444;45.822;16.092;2023-02-03T09:16:53;5.72;79.37
66586;SHT30;53444;45.822;16.092;2023-02-03T09:19:20;5.84;78.99
66586;SHT30;53444;45.822;16.092;2023-02-03T09:21:47;5.93;79.46
66586;SHT30;53444;45.822;16.092;2023-02-03T09:24:13;6.02;78.88
66586;SHT30;53444;45.822;16.092;2023-02-03T09:26:40;6.03;77.59
66586;SHT30;53444;45.822;16.092;2023-02-03T09:29:08;6.09;77.20
66586;SHT30;53444;45.822;16.092;2023-02-03T09:31:35;6.16;77.39
66586;SHT30;53444;45.822;16.092;2023-02-03T09:34:02;6.25;77.03
66586;SHT30;53444;45.822;16.092;2023-02-03T09:36:28;6.16;76.79
66586;SHT30;53444;45.822;16.092;2023-02-03T09:38:55;6.38;76.59
66586;SHT30;53444;45.822;16.092;2023-02-03T09:41:41;6.56;75.37
66586;SHT30;53444;45.822;16.092;2023-02-03T09:44:16;6.80;75.95
66586;SHT30;53444;45.822;16.092;2023-02-03T09:46:52;6.87;73.80
66586;SHT30;53444;45.822;16.092;2023-02-03T09:49:23;6.94;71.87
66586;SHT30;53444;45.822;16.092;2023-02-03T09:51:53;7.19;72.09
66586;SHT30;53444;45.822;16.092;2023-02-03T09:54:26;7.22;70.92
66586;SHT30;53444;45.822;16.092;2023-02-03T09:56:53;7.42;70.66
66586;SHT30;53444;45.822;16.092;2023-02-03T09:59:21;7.59;69.60
66586;SHT30;53444;45.822;16.092;2023-02-03T10:01:54;7.71;68.53
66586;SHT30;53444;45.822;16.092;2023-02-03T10:04:29;7.71;67.76
66586;SHT30;53444;45.822;16.092;2023-02-03T10:07:05;7.90;66.80
66586;SHT30;53444;45.822;16.092;2023-02-03T10:09:46;7.83;66.13
66586;SHT30;53444;45.822;16.092;2023-02-03T10:12:42;8.10;64.80
66586;SHT30;53444;45.822;16.092;2023-02-03T10:15:24;8.30;65.04
66586;SHT30;53444;45.822;16.092;2023-02-03T10:17:56;8.01;65.16
66586;SHT30;53444;45.822;16.092;2023-02-03T10:20:27;7.98;62.82
66586;SHT30;53444;45.822;16.092;2023-02-03T10:23:01;8.25;63.58
66586;SHT30;53444;45.822;16.092;2023-02-03T10:25:32;8.44;63.92
66586;SHT30;53444;45.822;16.092;2023-02-03T10:28:06;8.79;62.08
66586;SHT30;53444;45.822;16.092;2023-02-03T10:30:39;9.06;62.62
66586;SHT30;53444;45.822;16.092;2023-02-03T10:33:10;9.19;63.15
66586;SHT30;53444;45.822;16.092;2023-02-03T10:35:43;9.04;62.19
66586;SHT30;53444;45.822;16.092;2023-02-03T10:38:21;8.86;60.56
66586;SHT30;53444;45.822;16.092;2023-02-03T10:40:49;9.00;61.52
66586;SHT30;53444;45.822;16.092;2023-02-03T10:43:17;8.97;60.95
66586;SHT30;53444;45.822;16.092;2023-02-03T10:46:02;9.03;62.58
66586;SHT30;53444;45.822;16.092;2023-02-03T10:48:29;9.22;63.87
66586;SHT30;53444;45.822;16.092;2023-02-03T10:50:56;9.34;61.69
66586;SHT30;53444;45.822;16.092;2023-02-03T10:53:25;9.23;60.39
66586;SHT30;53444;45.822;16.092;2023-02-03T10:56:00;9.54;56.38
66586;SHT30;53444;45.822;16.092;2023-02-03T10:58:29;9.61;55.24
66586;SHT30;53444;45.822;16.092;2023-02-03T11:01:06;9.50;55.74
66586;SHT30;53444;45.822;16.092;2023-02-03T11:03:34;9.34;55.70
66586;SHT30;53444;45.822;16.092;2023-02-03T11:06:03;9.50;54.70
66586;SHT30;53444;45.822;16.092;2023-02-03T11:08:31;9.50;54.87
66586;SHT30;53444;45.822;16.092;2023-02-03T11:11:01;9.43;55.04
66586;SHT30;53444;45.822;16.092;2023-02-03T11:13:28;9.54;54.88
66586;SHT30;53444;45.822;16.092;2023-02-03T11:15:58;9.45;55.10
66586;SHT30;53444;45.822;16.092;2023-02-03T11:18:39;9.38;55.13
66586;SHT30;53444;45.822;16.092;2023-02-03T11:21:12;9.16;55.65
66586;SHT30;53444;45.822;16.092;2023-02-03T11:23:55;9.10;56.12
66586;SHT30;53444;45.822;16.092;2023-02-03T11:26:26;9.14;56.80
66586;SHT30;53444;45.822;16.092;2023-02-03T11:28:56;9.30;57.72
66586;SHT30;53444;45.822;16.092;2023-02-03T11:31:25;9.47;57.26
66586;SHT30;53444;45.822;16.092;2023-02-03T11:34:04;9.61;57.49
66586;SHT30;53444;45.822;16.092;2023-02-03T11:36:33;9.62;56.39
66586;SHT30;53444;45.822;16.092;2023-02-03T11:39:19;9.68;57.34
66586;SHT30;53444;45.822;16.092;2023-02-03T11:41:46;9.58;56.71
66586;SHT30;53444;45.822;16.092;2023-02-03T11:44:18;9.89;57.10
66586;SHT30;53444;45.822;16.092;2023-02-03T11:46:47;10.06;56.06
66586;SHT30;53444;45.822;16.092;2023-02-03T11:49:33;10.05;55.47
66586;SHT30;53444;45.822;16.092;2023-02-03T11:52:15;10.43;55.04
66586;SHT30;53444;45.822;16.092;2023-02-03T11:54:54;10.33;55.07
66586;SHT30;53444;45.822;16.092;2023-02-03T11:57:28;10.08;55.42
66586;SHT30;53444;45.822;16.092;2023-02-03T12:00:07;9.88;55.99
66586;SHT30;53444;45.822;16.092;2023-02-03T12:03:02;9.81;56.01
66586;SHT30;53444;45.822;16.092;2023-02-03T12:05:57;9.88;56.05
66586;SHT30;53444;45.822;16.092;2023-02-03T12:08:33;9.84;56.29
66586;SHT30;53444;45.822;16.092;2023-02-03T12:11:08;9.73;56.24
66586;SHT30;53444;45.822;16.092;2023-02-03T12:13:49;9.91;55.67
66586;SHT30;53444;45.822;16.092;2023-02-03T12:16:35;9.82;54.48
66586;SHT30;53444;45.822;16.092;2023-02-03T12:19:13;9.81;54.48
66586;SHT30;53444;45.822;16.092;2023-02-03T12:21:48;9.84;55.05
66586;SHT30;53444;45.822;16.092;2023-02-03T12:24:23;9.95;55.52
66586;SHT30;53444;45.822;16.092;2023-02-03T12:27:01;9.89;55.10
66586;SHT30;53444;45.822;16.092;2023-02-03T12:29:34;9.95;55.73
66586;SHT30;53444;45.822;16.092;2023-02-03T12:32:10;9.81;55.45
66586;SHT30;53444;45.822;16.092;2023-02-03T12:34:44;9.91;56.19
66586;SHT30;53444;45.822;16.092;2023-02-03T12:37:17;10.01;56.29
66586;SHT30;53444;45.822;16.092;2023-02-03T12:39:56;10.05;56.43
66586;SHT30;53444;45.822;16.092;2023-02-03T12:42:29;10.13;56.43
66586;SHT30;53444;45.822;16.092;2023-02-03T12:44:59;10.13;55.58
66586;SHT30;53444;45.822;16.092;2023-02-03T12:47:31;10.32;56.18
66586;SHT30;53444;45.822;16.092;2023-02-03T12:50:02;10.30;55.89
66586;SHT30;53444;45.822;16.092;2023-02-03T12:52:35;10.35;56.13
66586;SHT30;53444;45.822;16.092;2023-02-03T12:55:13;10.25;56.24
66586;SHT30;53444;45.822;16.092;2023-02-03T12:57:45;10.35;56.35
66586;SHT30;53444;45.822;16.092;2023-02-03T13:00:23;10.42;56.01
66586;SHT30;53444;45.822;16.092;2023-02-03T13:03:01;10.25;55.46
66586;SHT30;53444;45.822;16.092;2023-02-03T13:05:37;10.23;56.39
66586;SHT30;53444;45.822;16.092;2023-02-03T13:08:12;10.22;56.33
66586;SHT30;53444;45.822;16.092;2023-02-03T13:10:45;10.02;56.21
66586;SHT30;53444;45.822;16.092;2023-02-03T13:13:16;9.99;56.35
66586;SHT30;53444;45.822;16.092;2023-02-03T13:15:47;10.02;56.46
66586;SHT30;53444;45.822;16.092;2023-02-03T13:18:21;10.02;57.15
66586;SHT30;53444;45.822;16.092;2023-02-03T13:20:51;10.08;56.80
66586;SHT30;53444;45.822;16.092;2023-02-03T13:23:19;10.06;56.77
66586;SHT30;53444;45.822;16.092;2023-02-03T13:25:56;10.08;56.06
66586;SHT30;53444;45.822;16.092;2023-02-03T13:28:41;10.05;56.42
66586;SHT30;53444;45.822;16.092;2023-02-03T13:31:19;10.06;56.41
66586;SHT30;53444;45.822;16.092;2023-02-03T13:34:10;10.05;55.72
66586;SHT30;53444;45.822;16.092;2023-02-03T13:37:10;10.05;55.87
66586;SHT30;53444;45.822;16.092;2023-02-03T13:40:01;10.03;56.32
66586;SHT30;53444;45.822;16.092;2023-02-03T13:42:33;10.05;56.55
66586;SHT30;53444;45.822;16.092;2023-02-03T13:45:14;10.05;56.29
66586;SHT30;53444;45.822;16.092;2023-02-03T13:47:45;10.02;56.30
66586;SHT30;53444;45.822;16.092;2023-02-03T13:50:18;9.98;55.65
66586;SHT30;53444;45.822;16.092;2023-02-03T13:52:53;9.98;56.37
66586;SHT30;53444;45.822;16.092;2023-02-03T13:55:28;10.02;56.31
66586;SHT30;53444;45.822;16.092;2023-02-03T13:57:55;9.96;56.66
66586;SHT30;53444;45.822;16.092;2023-02-03T14:00:58;9.95;56.64
66586;SHT30;53444;45.822;16.092;2023-02-03T14:03:40;9.92;56.61
66586;SHT30;53444;45.822;16.092;2023-02-03T14:09:35;9.88;57.40
66586;SHT30;53444;45.822;16.092;2023-02-03T14:12:21;9.89;57.30
66586;SHT30;53444;45.822;16.092;2023-02-03T14:14:58;9.84;57.37
66586;SHT30;53444;45.822;16.092;2023-02-03T14:20:53;9.81;57.47
66586;SHT30;53444;45.822;16.092;2023-02-03T14:23:27;9.78;57.95
66586;SHT30;53444;45.822;16.092;2023-02-03T14:25:56;9.70;58.32
66586;SHT30;53444;45.822;16.092;2023-02-03T14:28:30;9.67;58.56
66586;SHT30;53444;45.822;16.092;2023-02-03T14:31:08;9.64;58.95
66586;SHT30;53444;45.822;16.092;2023-02-03T14:33:52;9.70;58.52
66586;SHT30;53444;45.822;16.092;2023-02-03T14:36:34;9.65;58.75
66586;SHT30;53444;45.822;16.092;2023-02-03T14:39:15;9.65;59.01
66586;SHT30;53444;45.822;16.092;2023-02-03T14:41:51;9.67;59.12
66586;SHT30;53444;45.822;16.092;2023-02-03T14:44:29;9.67;59.19
66586;SHT30;53444;45.822;16.092;2023-02-03T14:47:08;9.59;59.80
66586;SHT30;53444;45.822;16.092;2023-02-03T14:49:52;9.62;59.67
66586;SHT30;53444;45.822;16.092;2023-02-03T14:52:43;9.58;59.92
66586;SHT30;53444;45.822;16.092;2023-02-03T14:55:29;9.58;60.33
66586;SHT30;53444;45.822;16.092;2023-02-03T14:58:01;9.59;60.73
66586;SHT30;53444;45.822;16.092;2023-02-03T15:00:32;9.55;60.92
66586;SHT30;53444;45.822;16.092;2023-02-03T15:03:17;9.51;61.22
66586;SHT30;53444;45.822;16.092;2023-02-03T15:05:48;9.48;61.51
66586;SHT30;53444;45.822;16.092;2023-02-03T15:08:45;9.51;61.53
66586;SHT30;53444;45.822;16.092;2023-02-03T15:11:30;9.50;61.68
66586;SHT30;53444;45.822;16.092;2023-02-03T15:14:14;9.43;62.37
66586;SHT30;53444;45.822;16.092;2023-02-03T15:16:43;9.44;61.97
66586;SHT30;53444;45.822;16.092;2023-02-03T15:19:17;9.44;62.28
66586;SHT30;53444;45.822;16.092;2023-02-03T15:21:45;9.40;62.44
66586;SHT30;53444;45.822;16.092;2023-02-03T15:24:13;9.40;62.19
66586;SHT30;53444;45.822;16.092;2023-02-03T15:26:47;9.43;61.78
66586;SHT30;53444;45.822;16.092;2023-02-03T15:29:28;9.38;61.59
66586;SHT30;53444;45.822;16.092;2023-02-03T15:32:07;9.35;61.70
66586;SHT30;53444;45.822;16.092;2023-02-03T15:34:38;9.43;61.19
66586;SHT30;53444;45.822;16.092;2023-02-03T15:37:10;9.37;61.56
66586;SHT30;53444;45.822;16.092;2023-02-03T15:42:33;9.38;61.75
66586;SHT30;53444;45.822;16.092;2023-02-03T15:45:05;9.30;62.11
66586;SHT30;53444;45.822;16.092;2023-02-03T15:47:37;9.28;62.23
66586;SHT30;53444;45.822;16.092;2023-02-03T15:50:25;9.23;62.27
66586;SHT30;53444;45.822;16.092;2023-02-03T15:52:57;9.22;62.15
66586;SHT30;53444;45.822;16.092;2023-02-03T15:55:31;9.22;61.84
66586;SHT30;53444;45.822;16.092;2023-02-03T15:57:59;9.26;61.72
66586;SHT30;53444;45.822;16.092;2023-02-03T16:00:32;9.16;61.95
66586;SHT30;53444;45.822;16.092;2023-02-03T16:03:02;9.22;61.75
66586;SHT30;53444;45.822;16.092;2023-02-03T16:05:32;9.17;62.13
66586;SHT30;53444;45.822;16.092;2023-02-03T16:08:24;9.14;62.31